Time;durP1;ratioP1;P1;durP2;ratioP2;P2;SDS_P1;SDS_P2;PMS_P1;PMS_P2;Temp;Humidity;BMP_temperature;BMP_pressure;BME280_temperature;BME280_humidity;BME280_pressure;Samples;Min_cycle;Max_cycle;Signal;HPM_P1;HPM_P2
2023/06/19 00:00:15;;;;;;;8.87;7.97;;;22.90;1.00;;;;;;5010232;28;20183;-72
2023/06/19 00:02:41;;;;;;;8.50;7.77;;;22.90;1.00;;;;;;5011400;28;20180;-72
2023/06/19 00:05:08;;;;;;;9.00;8.20;;;22.90;1.00;;;;;;5011726;28;20422;-72
2023/06/19 00:07:35;;;;;;;8.37;7.67;;;22.90;1.00;;;;;;5011580;28;20488;-72
2023/06/19 00:10:01;;;;;;;9.30;8.37;;;22.80;1.00;;;;;;5011271;28;20558;-72
2023/06/19 00:12:26;;;;;;;7.57;6.80;;;22.80;1.00;;;;;;5010998;28;20517;-72
2023/06/19 00:14:52;;;;;;;7.83;7.23;;;22.80;1.00;;;;;;5011335;28;20185;-72
2023/06/19 00:17:17;;;;;;;8.00;7.30;;;22.80;1.00;;;;;;5011362;28;20172;-72
2023/06/19 00:19:44;;;;;;;10.90;6.63;;;22.80;1.00;;;;;;5011320;28;20184;-72
2023/06/19 00:22:09;;;;;;;8.97;8.17;;;22.80;1.00;;;;;;5010893;28;20239;-72
2023/06/19 00:24:35;;;;;;;9.57;8.73;;;22.80;1.00;;;;;;5011075;28;20520;-71
2023/06/19 00:27:02;;;;;;;8.13;7.20;;;22.90;1.00;;;;;;5011924;28;20289;-71
2023/06/19 00:29:28;;;;;;;8.70;8.00;;;22.80;1.00;;;;;;5014688;28;20200;-70
2023/06/19 00:31:53;;;;;;;10.00;8.50;;;22.80;1.00;;;;;;5014354;28;20439;-70
2023/06/19 00:34:19;;;;;;;8.77;7.97;;;22.70;1.00;;;;;;5014693;28;20426;-69
2023/06/19 00:36:45;;;;;;;8.47;7.67;;;22.60;1.00;;;;;;5014832;28;20184;-70
2023/06/19 00:39:10;;;;;;;7.63;6.93;;;22.50;1.00;;;;;;5014954;28;20580;-69
2023/06/19 00:41:37;;;;;;;8.20;7.40;;;22.40;1.00;;;;;;5014443;28;20634;-70
2023/06/19 00:44:03;;;;;;;8.03;7.23;;;22.20;1.00;;;;;;5014894;28;20183;-70
2023/06/19 00:46:32;;;;;;;9.23;8.50;;;22.10;1.00;;;;;;5014620;28;20418;-70
2023/06/19 00:49:00;;;;;;;8.60;7.83;;;22.00;1.00;;;;;;5013397;28;20755;-69
2023/06/19 00:51:26;;;;;;;9.17;8.37;;;21.90;1.00;;;;;;5014353;28;20514;-70
2023/06/19 00:53:52;;;;;;;8.87;8.07;;;21.80;1.00;;;;;;5014474;28;20485;-69
2023/06/19 00:56:18;;;;;;;7.87;7.27;;;21.80;1.00;;;;;;5014596;28;20689;-70
2023/06/19 00:58:44;;;;;;;8.93;8.17;;;21.80;1.00;;;;;;5014565;28;20498;-70
2023/06/19 01:01:10;;;;;;;9.30;7.63;;;21.80;1.00;;;;;;5014539;28;20833;-70
2023/06/19 01:03:36;;;;;;;8.77;7.97;;;21.80;1.00;;;;;;5014194;28;20419;-70
2023/06/19 01:06:05;;;;;;;9.23;8.43;;;21.70;1.00;;;;;;5014255;28;20194;-70
2023/06/19 01:08:55;;;;;;;7.57;6.73;;;21.70;1.00;;;;;;5014321;28;20794;-70
2023/06/19 01:11:26;;;;;;;8.23;7.50;;;21.70;1.00;;;;;;5014103;28;20445;-70
2023/06/19 01:13:59;;;;;;;8.40;7.70;;;21.70;1.00;;;;;;5014010;28;20510;-68
2023/06/19 01:16:26;;;;;;;8.70;7.90;;;21.60;1.00;;;;;;5014250;28;20407;-69
2023/06/19 01:18:52;;;;;;;8.73;8.03;;;21.60;1.00;;;;;;5013935;28;20419;-69
2023/06/19 01:21:19;;;;;;;9.40;8.43;;;21.60;1.00;;;;;;5013946;28;20435;-69
2023/06/19 01:23:45;;;;;;;9.37;7.50;;;21.50;1.00;;;;;;5013760;28;20407;-69
2023/06/19 01:26:11;;;;;;;7.53;6.87;;;21.50;1.00;;;;;;5013885;28;20414;-69
2023/06/19 01:28:41;;;;;;;9.23;8.43;;;21.50;1.00;;;;;;5012635;28;20430;-69
2023/06/19 01:31:24;;;;;;;9.53;8.53;;;21.50;1.00;;;;;;5013619;28;20478;-69
2023/06/19 01:33:51;;;;;;;8.27;7.57;;;21.50;1.00;;;;;;5013492;28;20767;-69
2023/06/19 01:36:19;;;;;;;8.50;7.70;;;21.50;1.00;;;;;;5013703;28;20538;-69
2023/06/19 01:38:47;;;;;;;10.93;8.10;;;21.50;1.00;;;;;;5013193;28;20423;-69
2023/06/19 01:41:15;;;;;;;9.13;8.23;;;21.60;1.00;;;;;;5013527;28;20446;-69
2023/06/19 01:43:41;;;;;;;8.23;7.43;;;21.60;1.00;;;;;;5013130;28;20414;-69
2023/06/19 01:46:06;;;;;;;7.43;6.90;;;21.60;1.00;;;;;;5013656;28;20497;-70
2023/06/19 01:48:32;;;;;;;6.60;6.00;;;21.60;1.00;;;;;;5014003;28;20898;-69
2023/06/19 01:50:57;;;;;;;12.50;8.53;;;21.60;1.00;;;;;;5013989;28;20215;-69
2023/06/19 01:53:23;;;;;;;9.27;7.10;;;21.60;1.00;;;;;;5013663;28;20176;-69
2023/06/19 01:55:49;;;;;;;7.60;6.80;;;21.60;1.00;;;;;;5013255;28;20231;-69
2023/06/19 01:58:14;;;;;;;9.07;7.10;;;21.60;1.00;;;;;;5013521;28;20234;-69
2023/06/19 02:00:40;;;;;;;7.77;7.07;;;21.60;1.00;;;;;;5013405;28;20196;-69
2023/06/19 02:03:05;;;;;;;9.43;7.33;;;21.50;1.00;;;;;;5013223;28;20183;-69
2023/06/19 02:05:31;;;;;;;8.50;7.77;;;21.50;1.00;;;;;;5013278;28;20614;-69
2023/06/19 02:07:57;;;;;;;9.23;7.10;;;21.40;1.00;;;;;;5013228;28;20175;-70
2023/06/19 02:10:23;;;;;;;7.27;6.57;;;21.40;1.00;;;;;;5013080;28;20295;-69
2023/06/19 02:12:48;;;;;;;7.03;6.23;;;21.40;1.00;;;;;;5012827;28;20494;-70
2023/06/19 02:15:14;;;;;;;7.17;6.23;;;21.30;1.00;;;;;;5013095;28;20187;-70
2023/06/19 02:17:42;;;;;;;8.50;7.70;;;21.30;1.00;;;;;;5011872;28;20226;-70
2023/06/19 02:20:09;;;;;;;6.93;6.33;;;21.30;1.00;;;;;;5013043;28;20184;-69
2023/06/19 02:22:35;;;;;;;8.10;6.17;;;21.30;1.00;;;;;;5012604;28;20812;-70
2023/06/19 02:25:04;;;;;;;7.20;6.60;;;21.20;1.00;;;;;;5012891;28;20415;-70
2023/06/19 02:27:30;;;;;;;6.00;5.50;;;21.20;1.00;;;;;;5012715;28;20226;-70
2023/06/19 02:29:55;;;;;;;5.63;5.13;;;21.20;1.00;;;;;;5012692;28;20999;-70
2023/06/19 02:32:21;;;;;;;6.70;6.10;;;21.10;1.00;;;;;;5012408;28;20196;-70
2023/06/19 02:34:46;;;;;;;6.80;6.10;;;21.10;1.50;;;;;;5012677;28;20176;-70
2023/06/19 02:37:12;;;;;;;7.20;6.50;;;21.10;1.70;;;;;;5012835;28;20183;-70
2023/06/19 02:39:38;;;;;;;6.20;5.70;;;21.10;1.80;;;;;;5011484;28;20207;-70
2023/06/19 02:42:04;;;;;;;6.70;6.10;;;21.10;1.60;;;;;;5012227;28;20215;-70
2023/06/19 02:44:30;;;;;;;7.00;6.40;;;21.10;1.60;;;;;;5012586;28;20546;-70
2023/06/19 02:46:55;;;;;;;7.20;6.43;;;21.10;1.70;;;;;;5012649;28;20500;-70
2023/06/19 02:49:21;;;;;;;6.30;5.70;;;21.10;1.60;;;;;;5010522;28;20227;-69
2023/06/19 02:51:46;;;;;;;7.53;6.93;;;21.10;1.40;;;;;;5012073;28;20567;-70
2023/06/19 02:54:12;;;;;;;7.47;6.87;;;21.20;1.50;;;;;;5012532;28;20180;-70
2023/06/19 02:56:38;;;;;;;7.27;6.57;;;21.20;1.40;;;;;;5012381;28;20179;-70
2023/06/19 02:59:04;;;;;;;6.23;5.63;;;21.20;1.50;;;;;;5012433;28;20192;-70
2023/06/19 03:01:30;;;;;;;7.13;6.50;;;21.10;1.60;;;;;;5012041;28;20438;-70
2023/06/19 03:03:55;;;;;;;5.67;5.17;;;21.20;1.40;;;;;;5012071;28;20551;-70
2023/06/19 03:06:21;;;;;;;7.53;6.43;;;21.20;1.40;;;;;;5012274;28;20204;-70
2023/06/19 03:08:46;;;;;;;7.10;6.40;;;21.30;1.30;;;;;;5012135;28;20674;-70
2023/06/19 03:11:12;;;;;;;6.83;6.20;;;21.30;1.30;;;;;;5010943;28;20603;-70
2023/06/19 03:13:49;;;;;;;6.33;5.73;;;21.20;1.50;;;;;;5011923;28;20168;-70
2023/06/19 03:16:15;;;;;;;5.80;4.87;;;21.20;1.70;;;;;;5012045;28;20411;-70
2023/06/19 03:18:42;;;;;;;6.23;5.63;;;21.20;1.50;;;;;;5010704;28;20430;-70
2023/06/19 03:21:07;;;;;;;6.90;6.30;;;21.20;1.90;;;;;;5011949;28;20211;-70
2023/06/19 03:23:33;;;;;;;5.80;5.10;;;21.20;1.90;;;;;;5010280;28;20982;-69
2023/06/19 03:25:59;;;;;;;6.50;5.87;;;21.10;1.90;;;;;;5011854;28;20180;-69
2023/06/19 03:28:24;;;;;;;6.53;5.30;;;21.10;2.30;;;;;;5011971;28;20179;-69
2023/06/19 03:30:50;;;;;;;11.10;6.20;;;21.10;2.20;;;;;;5011635;28;20208;-69
2023/06/19 03:33:15;;;;;;;7.37;6.40;;;21.10;2.50;;;;;;5011774;28;20168;-69
2023/06/19 03:35:41;;;;;;;6.17;5.60;;;21.10;1.90;;;;;;5011952;28;20299;-70
2023/06/19 03:38:07;;;;;;;4.13;3.73;;;21.20;1.90;;;;;;5011640;28;20167;-69
2023/06/19 03:40:32;;;;;;;5.40;4.90;;;21.10;1.70;;;;;;5011758;28;20601;-69
2023/06/19 03:42:58;;;;;;;4.90;4.50;;;21.20;1.80;;;;;;5011668;28;20552;-69
2023/06/19 03:45:23;;;;;;;6.53;5.93;;;21.10;1.70;;;;;;5012086;28;20654;-69
2023/06/19 03:47:49;;;;;;;6.03;5.53;;;21.20;1.50;;;;;;5011781;28;20258;-69
2023/06/19 03:50:15;;;;;;;6.20;5.53;;;21.20;1.30;;;;;;5011627;28;20569;-69
2023/06/19 03:52:40;;;;;;;5.57;5.10;;;21.20;1.40;;;;;;5011438;28;20172;-69
2023/06/19 03:55:06;;;;;;;7.63;4.87;;;21.20;1.30;;;;;;5011725;28;20176;-70
2023/06/19 03:57:32;;;;;;;5.27;4.77;;;21.30;1.10;;;;;;5011657;28;20251;-69
2023/06/19 03:59:57;;;;;;;5.43;4.93;;;21.30;1.20;;;;;;5011747;28;20172;-70
2023/06/19 04:02:23;;;;;;;3.90;3.40;;;21.30;1.00;;;;;;5014232;28;20258;-69
2023/06/19 04:04:48;;;;;;;4.83;4.43;;;21.40;1.00;;;;;;5015515;28;20210;-70
2023/06/19 04:07:14;;;;;;;5.47;4.97;;;21.40;1.00;;;;;;5015476;28;20650;-70
2023/06/19 04:09:39;;;;;;;4.67;4.20;;;21.50;1.00;;;;;;5015393;28;20683;-70
2023/06/19 04:12:05;;;;;;;7.60;3.70;;;21.50;1.00;;;;;;5014997;28;20191;-70
2023/06/19 04:14:31;;;;;;;5.80;3.67;;;21.50;1.00;;;;;;5014125;28;20206;-70
2023/06/19 04:16:57;;;;;;;4.47;4.07;;;21.50;1.00;;;;;;5015380;28;20410;-71
2023/06/19 04:19:22;;;;;;;4.37;3.97;;;21.50;1.00;;;;;;5015191;28;20179;-70
2023/06/19 04:21:48;;;;;;;4.63;3.67;;;21.50;1.00;;;;;;5014948;28;20208;-70
2023/06/19 04:24:13;;;;;;;5.23;4.73;;;21.60;1.00;;;;;;5015297;28;20171;-70
2023/06/19 04:26:39;;;;;;;3.50;3.20;;;21.70;1.00;;;;;;5015017;28;20207;-70
2023/06/19 04:29:06;;;;;;;4.97;4.47;;;21.70;1.00;;;;;;5015150;28;20172;-70
2023/06/19 04:31:32;;;;;;;4.50;3.67;;;21.70;1.00;;;;;;5013335;28;20231;-70
2023/06/19 04:33:57;;;;;;;6.30;4.03;;;21.60;1.00;;;;;;5014975;28;20465;-70
2023/06/19 04:36:23;;;;;;;6.77;3.83;;;21.70;1.00;;;;;;5014903;28;20406;-69
2023/06/19 04:38:51;;;;;;;8.03;4.13;;;21.70;1.00;;;;;;5014690;28;20179;-70
2023/06/19 04:41:17;;;;;;;8.57;3.90;;;21.70;2.30;;;;;;5016666;23;20243;-68
2023/06/19 04:43:42;;;;;;;3.87;2.90;;;21.80;3.50;;;;;;4976145;28;20428;-68
2023/06/19 04:46:08;;;;;;;9.90;4.07;;;21.70;5.50;;;;;;4974649;28;20463;-69
2023/06/19 04:48:36;;;;;;;4.70;3.77;;;21.70;6.30;;;;;;4975918;28;20212;-68
2023/06/19 04:51:02;;;;;;;4.87;3.37;;;21.80;5.20;;;;;;4980685;28;20583;-68
2023/06/19 04:53:28;;;;;;;4.50;3.87;;;21.80;5.50;;;;;;4994897;28;20420;-68
2023/06/19 04:55:55;;;;;;;3.47;3.00;;;21.70;5.00;;;;;;4994066;28;21032;-68
2023/06/19 04:58:21;;;;;;;3.20;2.90;;;21.70;5.90;;;;;;4993997;28;20419;-68
2023/06/19 05:00:50;;;;;;;3.63;3.17;;;21.70;6.60;;;;;;4996558;28;20443;-67
2023/06/19 05:03:17;;;;;;;3.03;2.30;;;21.80;5.70;;;;;;4995558;28;20421;-68
2023/06/19 05:05:43;;;;;;;3.30;2.67;;;21.80;6.60;;;;;;4995002;28;20412;-68
2023/06/19 05:08:09;;;;;;;5.10;2.23;;;21.70;6.90;;;;;;4993756;28;20431;-68
2023/06/19 05:10:35;;;;;;;3.50;1.90;;;21.80;6.30;;;;;;4993469;28;20951;-68
2023/06/19 05:13:01;;;;;;;3.53;2.40;;;21.70;6.80;;;;;;4994068;28;20177;-68
2023/06/19 05:15:27;;;;;;;3.07;1.97;;;21.70;7.20;;;;;;4994920;28;20172;-68
2023/06/19 05:17:53;;;;;;;5.93;2.70;;;21.70;7.30;;;;;;4993636;28;20849;-68
2023/06/19 05:20:19;;;;;;;4.80;2.47;;;21.90;7.60;;;;;;4994570;28;20416;-68
2023/06/19 05:22:45;;;;;;;8.10;2.47;;;21.90;7.70;;;;;;4994394;28;20204;-68
2023/06/19 05:25:10;;;;;;;5.13;2.70;;;22.00;9.00;;;;;;4994925;28;20191;-70
2023/06/19 05:27:36;;;;;;;3.60;2.10;;;22.00;8.30;;;;;;4994474;28;20192;-69
2023/06/19 05:30:02;;;;;;;2.93;2.07;;;22.20;9.10;;;;;;4995044;28;20266;-69
2023/06/19 05:32:28;;;;;;;13.23;3.23;;;22.30;8.10;;;;;;4995496;28;20197;-69
2023/06/19 05:34:53;;;;;;;6.67;3.80;;;22.30;8.10;;;;;;4995165;28;20781;-69
2023/06/19 05:37:19;;;;;;;6.13;3.67;;;22.50;7.20;;;;;;4993425;28;20235;-69
2023/06/19 05:39:45;;;;;;;12.57;5.90;;;22.70;5.80;;;;;;4994693;28;20188;-68
2023/06/19 05:42:10;;;;;;;6.57;3.47;;;22.80;6.60;;;;;;4992995;28;20223;-70
2023/06/19 05:44:36;;;;;;;7.00;2.20;;;23.10;6.50;;;;;;4995093;28;20189;-69
2023/06/19 05:47:01;;;;;;;2.80;2.20;;;23.20;5.10;;;;;;4994986;28;20185;-70
2023/06/19 05:49:27;;;;;;;3.47;2.60;;;23.40;4.40;;;;;;4994467;28;20223;-69
2023/06/19 05:51:52;;;;;;;4.63;2.77;;;23.60;3.20;;;;;;4992889;28;20216;-70
2023/06/19 05:54:18;;;;;;;2.67;2.47;;;23.70;4.10;;;;;;4994363;28;20176;-69
2023/06/19 05:56:43;;;;;;;2.90;2.60;;;24.00;3.80;;;;;;4995166;28;20212;-69
2023/06/19 05:59:09;;;;;;;3.97;2.43;;;24.40;3.50;;;;;;4994119;28;20189;-70
2023/06/19 06:01:34;;;;;;;4.23;2.60;;;24.90;2.70;;;;;;4993748;28;20212;-70
2023/06/19 06:04:01;;;;;;;3.60;3.30;;;25.10;1.70;;;;;;4993943;28;20176;-70
2023/06/19 06:06:27;;;;;;;3.10;2.90;;;25.30;1.00;;;;;;4993872;28;20181;-70
2023/06/19 06:08:54;;;;;;;4.60;3.63;;;25.30;1.00;;;;;;4994029;28;20819;-70
2023/06/19 06:11:20;;;;;;;4.10;3.33;;;25.30;1.00;;;;;;4994195;28;20440;-70
2023/06/19 06:13:46;;;;;;;4.73;3.73;;;25.20;1.00;;;;;;4992741;28;20805;-69
2023/06/19 06:16:11;;;;;;;5.73;3.53;;;25.20;1.00;;;;;;4994952;28;20176;-70
2023/06/19 06:18:37;;;;;;;4.67;3.70;;;25.10;1.00;;;;;;4993896;28;20177;-69
2023/06/19 06:21:03;;;;;;;2.90;2.57;;;25.10;1.00;;;;;;4992618;28;20223;-69
2023/06/19 06:23:29;;;;;;;3.80;2.90;;;25.30;1.00;;;;;;4993887;28;20187;-70
2023/06/19 06:26:01;;;;;;;3.30;3.00;;;25.50;1.00;;;;;;4993863;28;20909;-69
2023/06/19 06:28:26;;;;;;;3.50;3.30;;;25.80;1.00;;;;;;4993897;28;20173;-69
2023/06/19 06:30:52;;;;;;;3.37;3.07;;;26.40;1.00;;;;;;4994431;28;20521;-69
2023/06/19 06:33:17;;;;;;;4.60;4.20;;;26.80;1.00;;;;;;4993040;28;20630;-69
2023/06/19 06:35:43;;;;;;;6.27;4.30;;;26.80;1.00;;;;;;4993749;28;20177;-69
2023/06/19 06:38:09;;;;;;;6.10;4.70;;;26.80;1.00;;;;;;4994781;28;20260;-69
2023/06/19 06:40:35;;;;;;;9.07;5.43;;;26.20;1.00;;;;;;4994573;28;20946;-68
2023/06/19 06:43:00;;;;;;;7.00;4.77;;;25.70;1.00;;;;;;4975165;28;20205;-69
2023/06/19 06:45:26;;;;;;;5.47;4.67;;;25.70;1.00;;;;;;4986272;28;20720;-69
2023/06/19 06:47:52;;;;;;;5.67;3.90;;;25.60;1.00;;;;;;4983412;28;20215;-68
2023/06/19 06:50:17;;;;;;;7.53;4.23;;;25.40;1.30;;;;;;4971966;28;20223;-66
2023/06/19 06:52:43;;;;;;;6.60;4.20;;;25.90;1.00;;;;;;4968800;28;20256;-67
2023/06/19 06:55:09;;;;;;;4.30;4.00;;;27.60;1.00;;;;;;4971217;28;20181;-72
2023/06/19 06:57:35;;;;;;;5.23;4.80;;;30.90;1.00;;;;;;4970358;28;20705;-68
2023/06/19 07:00:01;;;;;;;5.27;4.87;;;31.70;1.00;;;;;;4971274;28;20487;-67
2023/06/19 07:02:26;;;;;;;4.40;4.10;;;31.60;1.00;;;;;;4973340;28;20352;-67
2023/06/19 07:04:52;;;;;;;5.03;4.50;;;31.40;1.00;;;;;;4971466;28;20586;-67
2023/06/19 07:07:17;;;;;;;4.73;4.33;;;30.10;1.00;;;;;;4970418;28;20200;-67
2023/06/19 07:09:43;;;;;;;4.90;4.50;;;29.70;1.00;;;;;;4971094;28;20675;-67
2023/06/19 07:12:09;;;;;;;4.80;4.40;;;28.50;1.00;;;;;;4969838;28;20204;-67
2023/06/19 07:14:34;;;;;;;4.83;4.40;;;28.00;1.00;;;;;;4970968;28;20253;-67
2023/06/19 07:17:00;;;;;;;4.50;4.10;;;28.00;1.00;;;;;;4970619;28;20268;-67
2023/06/19 07:19:25;;;;;;;5.70;5.20;;;27.40;1.00;;;;;;4970219;28;20189;-68
2023/06/19 07:21:51;;;;;;;11.63;6.57;;;27.40;1.00;;;;;;4970379;28;20201;-67
2023/06/19 07:24:17;;;;;;;4.20;3.80;;;27.60;1.00;;;;;;4971031;28;20812;-68
2023/06/19 07:26:42;;;;;;;4.70;4.30;;;27.50;1.00;;;;;;4974798;28;20828;-68
2023/06/19 07:29:08;;;;;;;13.73;6.60;;;27.60;1.00;;;;;;4988808;28;20185;-69
2023/06/19 07:31:33;;;;;;;49.93;14.10;;;27.80;1.00;;;;;;4986650;28;20204;-68
2023/06/19 07:33:59;;;;;;;23.57;10.70;;;27.90;1.00;;;;;;4989177;28;20185;-68
2023/06/19 07:36:25;;;;;;;7.77;5.33;;;28.00;1.00;;;;;;4990552;28;20188;-69
2023/06/19 07:38:52;;;;;;;6.73;5.20;;;28.10;1.00;;;;;;4990349;28;20567;-68
2023/06/19 07:41:17;;;;;;;5.20;4.70;;;28.70;1.00;;;;;;4999467;28;20227;-68
2023/06/19 07:43:43;;;;;;;17.73;8.43;;;30.70;1.00;;;;;;4999416;28;20917;-69
2023/06/19 07:46:09;;;;;;;36.77;13.97;;;34.10;1.00;;;;;;4998247;28;20176;-70
2023/06/19 07:48:35;;;;;;;26.40;12.57;;;37.40;1.00;;;;;;5000123;28;20196;-68
2023/06/19 07:51:00;;;;;;;5.77;5.27;;;37.80;1.00;;;;;;4998968;28;20539;-69
2023/06/19 07:53:26;;;;;;;47.47;17.73;;;36.20;1.00;;;;;;4999176;28;20254;-70
2023/06/19 07:55:51;;;;;;;18.83;11.30;;;34.60;1.00;;;;;;4999114;28;20641;-70
2023/06/19 07:58:18;;;;;;;6.40;5.80;;;33.50;1.00;;;;;;4999061;28;20172;-69
2023/06/19 08:00:43;;;;;;;6.03;5.53;;;32.40;1.00;;;;;;4998960;28;20239;-70
2023/06/19 08:03:09;;;;;;;6.50;5.90;;;31.80;1.00;;;;;;4998635;28;20420;-69
2023/06/19 08:05:34;;;;;;;8.27;6.87;;;31.20;1.00;;;;;;4998934;28;20184;-69
2023/06/19 08:08:01;;;;;;;5.87;5.40;;;30.60;1.00;;;;;;4999011;28;20180;-69
2023/06/19 08:10:27;;;;;;;5.40;4.90;;;31.00;1.00;;;;;;4998742;28;20662;-69
2023/06/19 08:12:52;;;;;;;5.37;4.90;;;31.40;1.00;;;;;;4998435;28;20459;-70
2023/06/19 08:15:18;;;;;;;5.20;4.90;;;31.80;1.00;;;;;;4998788;28;20179;-69
2023/06/19 08:17:44;;;;;;;5.40;5.00;;;32.30;1.00;;;;;;4998844;28;20233;-69
2023/06/19 08:20:09;;;;;;;5.50;5.03;;;33.10;1.00;;;;;;4998769;28;20184;-69
2023/06/19 08:22:35;;;;;;;5.63;5.10;;;34.40;1.00;;;;;;4998330;28;20220;-70
2023/06/19 08:25:02;;;;;;;5.17;4.83;;;37.40;1.00;;;;;;4998786;28;20506;-70
2023/06/19 08:27:27;;;;;;;5.57;5.17;;;38.90;1.00;;;;;;4998970;28;20808;-70
2023/06/19 08:29:53;;;;;;;15.73;9.40;;;38.90;1.00;;;;;;4997665;28;20451;-70
2023/06/19 08:32:19;;;;;;;5.80;5.30;;;39.80;1.00;;;;;;4998705;28;20196;-70
2023/06/19 08:34:45;;;;;;;6.03;5.50;;;40.10;1.00;;;;;;4998981;28;20529;-70
2023/06/19 08:37:10;;;;;;;5.57;5.07;;;42.10;1.00;;;;;;4999439;28;20410;-70
2023/06/19 08:39:37;;;;;;;5.13;4.83;;;41.60;1.00;;;;;;4998730;28;20213;-70
2023/06/19 08:42:05;;;;;;;6.83;6.33;;;42.50;1.00;;;;;;4998428;28;20204;-70
2023/06/19 08:44:32;;;;;;;17.90;8.53;;;42.20;1.00;;;;;;4997498;28;20423;-70
2023/06/19 08:46:58;;;;;;;5.07;4.67;;;42.40;1.00;;;;;;4998448;28;20602;-70
2023/06/19 08:49:23;;;;;;;5.17;4.87;;;39.00;1.00;;;;;;4994862;28;20455;-70
2023/06/19 08:51:49;;;;;;;5.50;5.00;;;36.70;1.00;;;;;;4995141;28;20235;-70
2023/06/19 08:54:14;;;;;;;4.87;4.47;;;35.50;1.00;;;;;;4995384;28;20245;-70
2023/06/19 08:56:40;;;;;;;4.43;4.23;;;34.30;1.00;;;;;;4995245;28;20646;-70
2023/06/19 08:59:14;;;;;;;4.63;4.33;;;32.90;1.00;;;;;;4995257;28;20198;-71
2023/06/19 09:01:51;;;;;;;4.53;4.23;;;31.50;1.00;;;;;;4995247;28;20499;-69
2023/06/19 09:04:19;;;;;;;4.80;4.50;;;31.20;1.00;;;;;;4993930;28;20419;-69
2023/06/19 09:06:55;;;;;;;4.67;4.37;;;32.20;1.00;;;;;;4995397;28;20506;-69
2023/06/19 09:09:23;;;;;;;5.27;4.90;;;31.60;1.00;;;;;;4995049;28;20998;-70
2023/06/19 09:12:12;;;;;;;5.50;5.00;;;31.60;1.00;;;;;;4994657;28;20494;-70
2023/06/19 09:14:45;;;;;;;5.10;4.70;;;34.10;1.00;;;;;;4994990;28;20415;-70
2023/06/19 09:17:13;;;;;;;5.50;5.10;;;35.50;1.00;;;;;;4995038;28;20783;-69
2023/06/19 09:19:47;;;;;;;4.83;4.53;;;35.30;1.00;;;;;;4994905;28;20893;-70
2023/06/19 09:22:13;;;;;;;5.73;5.10;;;34.00;1.00;;;;;;4994548;28;20446;-70
2023/06/19 09:24:40;;;;;;;5.30;4.93;;;32.30;1.00;;;;;;4994776;28;20439;-69
2023/06/19 09:27:14;;;;;;;4.97;4.57;;;31.00;1.00;;;;;;4993303;28;20267;-70
2023/06/19 09:29:44;;;;;;;5.40;4.90;;;30.60;1.00;;;;;;4994649;28;20460;-70
2023/06/19 09:32:21;;;;;;;4.80;4.40;;;30.50;1.00;;;;;;4994380;28;20796;-69
2023/06/19 09:34:49;;;;;;;5.00;4.70;;;30.40;1.00;;;;;;4994703;28;20784;-69
2023/06/19 09:37:15;;;;;;;4.87;4.57;;;30.20;1.00;;;;;;4994468;28;20408;-69
2023/06/19 09:39:41;;;;;;;5.10;4.80;;;30.10;1.00;;;;;;4994556;28;20787;-69
2023/06/19 09:42:10;;;;;;;8.37;5.13;;;30.20;1.00;;;;;;4994120;28;20212;-69
2023/06/19 09:44:41;;;;;;;5.40;5.00;;;30.40;1.00;;;;;;4994329;28;20914;-70
2023/06/19 09:47:20;;;;;;;5.13;4.80;;;30.40;1.00;;;;;;4994381;28;20399;-70
2023/06/19 09:49:50;;;;;;;5.30;4.90;;;30.50;1.00;;;;;;4993006;28;20467;-69
2023/06/19 09:52:15;;;;;;;4.87;4.57;;;30.70;1.00;;;;;;4993976;28;20793;-69
2023/06/19 09:54:43;;;;;;;4.70;4.40;;;30.60;1.00;;;;;;4994079;28;20483;-69
2023/06/19 09:57:10;;;;;;;4.83;4.43;;;30.80;1.00;;;;;;4993981;28;20176;-69
2023/06/19 09:59:38;;;;;;;5.80;5.40;;;31.20;1.00;;;;;;4993546;28;20478;-69
2023/06/19 10:02:06;;;;;;;4.90;4.50;;;30.90;1.00;;;;;;4992117;28;20500;-69
2023/06/19 10:04:43;;;;;;;5.00;4.70;;;30.80;1.00;;;;;;4992517;28;20424;-69
2023/06/19 10:07:22;;;;;;;4.93;4.60;;;30.80;1.00;;;;;;4993836;28;20861;-69
2023/06/19 10:10:04;;;;;;;5.00;4.60;;;30.50;1.00;;;;;;4992438;28;20988;-69
2023/06/19 10:12:49;;;;;;;5.27;4.97;;;30.30;1.00;;;;;;4993333;28;20435;-69
2023/06/19 10:15:26;;;;;;;6.60;5.57;;;29.90;1.00;;;;;;4993427;28;20474;-69
2023/06/19 10:17:53;;;;;;;5.67;5.27;;;29.50;1.00;;;;;;4993793;28;20461;-69
2023/06/19 10:20:38;;;;;;;5.17;4.87;;;29.60;1.00;;;;;;4993647;28;20424;-70
2023/06/19 10:23:18;;;;;;;5.10;4.80;;;29.70;1.00;;;;;;4993507;28;20415;-70
2023/06/19 10:25:45;;;;;;;5.37;4.97;;;29.80;1.00;;;;;;4992542;28;20467;-70
2023/06/19 10:28:22;;;;;;;4.63;4.33;;;29.60;1.00;;;;;;4992590;28;20416;-69
2023/06/19 10:30:57;;;;;;;4.33;4.03;;;29.30;1.00;;;;;;4993136;28;20522;-69
2023/06/19 10:33:24;;;;;;;5.10;4.80;;;29.40;1.00;;;;;;4993250;28;20423;-69
2023/06/19 10:35:50;;;;;;;5.93;5.43;;;29.40;1.00;;;;;;4993562;28;20423;-69
2023/06/19 10:38:16;;;;;;;4.53;4.23;;;29.50;1.00;;;;;;4993304;28;20518;-69
2023/06/19 10:40:44;;;;;;;5.67;5.27;;;29.70;1.00;;;;;;4992886;28;20419;-69
2023/06/19 10:43:09;;;;;;;5.63;5.23;;;29.50;1.00;;;;;;4993412;28;20482;-70
2023/06/19 10:45:35;;;;;;;4.80;4.50;;;29.70;1.00;;;;;;4992911;28;20411;-70
2023/06/19 10:48:05;;;;;;;4.60;4.20;;;29.70;1.00;;;;;;4992962;28;20177;-69
2023/06/19 10:50:42;;;;;;;5.30;4.80;;;29.70;1.00;;;;;;4992907;28;20203;-70
2023/06/19 10:53:08;;;;;;;5.33;4.83;;;29.80;1.00;;;;;;4992854;28;20412;-70
2023/06/19 10:55:33;;;;;;;4.57;4.23;;;29.70;1.00;;;;;;4992961;28;20932;-69
2023/06/19 10:57:59;;;;;;;5.00;4.60;;;29.90;1.00;;;;;;4992866;28;20175;-69
2023/06/19 11:00:30;;;;;;;5.20;4.90;;;30.00;1.00;;;;;;4992971;28;20183;-70
2023/06/19 11:02:59;;;;;;;4.83;4.53;;;30.20;1.00;;;;;;4992740;28;20176;-70
2023/06/19 11:05:26;;;;;;;4.80;4.50;;;30.40;1.00;;;;;;4992921;28;20412;-70
2023/06/19 11:07:53;;;;;;;6.37;5.77;;;30.30;1.00;;;;;;4992894;28;20920;-69
2023/06/19 11:10:22;;;;;;;11.13;5.97;;;30.70;1.00;;;;;;4992310;28;20456;-71
2023/06/19 11:12:48;;;;;;;5.60;5.23;;;30.90;1.00;;;;;;4991644;28;20447;-70
2023/06/19 11:15:14;;;;;;;9.13;6.43;;;30.60;1.00;;;;;;4991646;28;20423;-69
2023/06/19 11:17:39;;;;;;;5.10;4.80;;;30.80;1.00;;;;;;4991261;28;20806;-70
2023/06/19 11:20:16;;;;;;;5.87;5.47;;;31.10;1.00;;;;;;4992586;28;20552;-70
2023/06/19 11:22:42;;;;;;;7.57;6.87;;;31.30;1.00;;;;;;4992363;28;20196;-70
2023/06/19 11:25:10;;;;;;;6.30;5.80;;;31.40;1.00;;;;;;4992489;28;20503;-70
2023/06/19 11:27:39;;;;;;;7.80;5.90;;;31.40;1.00;;;;;;4991156;28;20518;-70
2023/06/19 11:30:07;;;;;;;9.33;6.90;;;31.20;1.00;;;;;;4992650;28;21010;-69
2023/06/19 11:32:41;;;;;;;6.30;5.80;;;30.70;1.00;;;;;;4991933;28;20444;-69
2023/06/19 11:35:09;;;;;;;7.07;5.70;;;30.50;1.00;;;;;;4992547;28;20484;-70
2023/06/19 11:37:35;;;;;;;8.90;5.87;;;30.40;1.00;;;;;;4992410;28;20511;-70
2023/06/19 11:40:04;;;;;;;6.13;5.57;;;30.40;1.00;;;;;;4992395;28;20424;-73
2023/06/19 11:42:29;;;;;;;5.13;4.77;;;30.50;1.00;;;;;;4990620;28;20470;-68
2023/06/19 11:45:06;;;;;;;6.70;6.20;;;30.30;1.00;;;;;;4992388;28;20428;-69
2023/06/19 11:47:36;;;;;;;13.43;8.00;;;30.40;1.00;;;;;;4992214;28;20215;-68
2023/06/19 11:50:04;;;;;;;5.53;5.03;;;30.50;1.00;;;;;;4992315;28;20459;-69
2023/06/19 11:52:30;;;;;;;5.97;5.50;;;30.60;1.00;;;;;;4991996;28;20444;-68
2023/06/19 11:54:55;;;;;;;5.63;5.23;;;30.70;1.00;;;;;;4992331;28;20802;-70
2023/06/19 11:57:21;;;;;;;5.60;5.20;;;31.00;1.00;;;;;;4992536;28;20250;-69
2023/06/19 11:59:46;;;;;;;5.27;4.87;;;31.30;1.00;;;;;;4992165;28;20342;-69
2023/06/19 12:02:12;;;;;;;5.83;5.33;;;31.60;1.00;;;;;;4991899;28;20200;-70
2023/06/19 12:04:38;;;;;;;6.10;5.70;;;31.80;1.00;;;;;;4992102;28;20219;-70
2023/06/19 12:07:04;;;;;;;6.20;5.70;;;32.00;1.00;;;;;;4992018;28;20449;-68
2023/06/19 12:09:30;;;;;;;6.13;5.63;;;32.20;1.00;;;;;;4992189;28;20711;-70
2023/06/19 12:11:56;;;;;;;5.47;5.07;;;32.10;1.00;;;;;;4992026;28;20619;-68
2023/06/19 12:14:21;;;;;;;5.90;5.50;;;31.90;1.00;;;;;;4992020;28;20416;-69
2023/06/19 12:16:47;;;;;;;5.57;5.17;;;31.90;1.00;;;;;;4992046;28;20173;-69
2023/06/19 12:19:13;;;;;;;7.30;6.60;;;32.20;1.00;;;;;;4991985;28;20414;-70
2023/06/19 12:21:38;;;;;;;7.07;6.37;;;32.30;1.00;;;;;;4991871;28;20196;-70
2023/06/19 12:24:05;;;;;;;6.70;6.30;;;32.50;1.00;;;;;;4995701;28;20905;-69
2023/06/19 12:26:36;;;;;;;5.67;5.37;;;32.40;1.00;;;;;;4995671;28;20212;-70
2023/06/19 12:29:03;;;;;;;6.50;6.00;;;32.20;1.00;;;;;;4996039;28;20415;-75
2023/06/19 12:31:29;;;;;;;5.87;5.47;;;32.20;1.00;;;;;;4995562;28;20487;-69
2023/06/19 12:33:55;;;;;;;6.20;5.80;;;32.20;1.00;;;;;;4995469;28;20411;-70
2023/06/19 12:36:20;;;;;;;5.40;4.90;;;32.30;1.00;;;;;;4994598;28;20419;-70
2023/06/19 12:38:47;;;;;;;6.63;6.03;;;32.40;1.00;;;;;;4995132;28;20191;-70
2023/06/19 12:41:13;;;;;;;5.13;4.83;;;32.30;1.00;;;;;;4993887;28;20290;-70
2023/06/19 12:43:38;;;;;;;5.40;5.00;;;32.20;1.00;;;;;;4993773;28;20489;-68
2023/06/19 12:46:04;;;;;;;6.40;5.80;;;31.70;1.00;;;;;;4991681;28;20187;-68
2023/06/19 12:48:32;;;;;;;6.00;5.50;;;31.40;1.00;;;;;;4993429;28;20303;-68
2023/06/19 12:50:57;;;;;;;5.20;4.90;;;31.60;1.00;;;;;;4992094;28;20486;-68
2023/06/19 12:53:26;;;;;;;5.40;5.10;;;31.60;1.00;;;;;;4996257;28;20924;-70